Time;durP1;ratioP1;P1;durP2;ratioP2;P2;SDS_P1;SDS_P2;PMS_P1;PMS_P2;Temp;Humidity;BMP_temperature;BMP_pressure;BME280_temperature;BME280_humidity;BME280_pressure;Samples;Min_cycle;Max_cycle;Signal;HPM_P1;HPM_P2
2021/04/28 00:00:40;;;;;;;9.48;5.17;;;;;;;5.12;59.67;97501.89;3794609;78;44068;-28
2021/04/28 00:05:47;;;;;;;7.17;5.23;;;;;;;5.06;59.61;97503.33;3806237;76;69019;-28
2021/04/28 00:10:53;;;;;;;10.95;5.58;;;;;;;5.03;58.88;97500.98;3804694;77;44130;-28
2021/04/28 00:16:00;;;;;;;8.70;5.53;;;;;;;4.92;60.33;97494.00;3799371;77;44766;-28
2021/04/28 00:21:09;;;;;;;9.80;5.57;;;;;;;4.79;61.13;97496.16;3702789;78;44032;-27
2021/04/28 00:26:16;;;;;;;7.45;5.37;;;;;;;4.77;60.35;97487.46;3797665;78;43709;-28
2021/04/28 00:31:22;;;;;;;8.25;4.95;;;;;;;4.66;61.22;97488.98;3795668;78;43716;-28
2021/04/28 00:36:28;;;;;;;8.80;5.17;;;;;;;4.52;62.17;97482.31;3798018;76;43713;-26
2021/04/28 00:41:33;;;;;;;8.80;5.77;;;;;;;4.44;62.28;97479.03;3701761;78;44119;-27
2021/04/28 00:46:40;;;;;;;9.10;5.65;;;;;;;4.33;63.38;97488.07;3799081;77;69062;-27
2021/04/28 00:51:47;;;;;;;7.17;5.37;;;;;;;4.19;66.55;97470.69;3796485;77;68990;-27
2021/04/28 00:56:56;;;;;;;7.83;5.20;;;;;;;4.17;64.79;97475.34;3701200;80;44013;-28
2021/04/28 01:02:03;;;;;;;9.85;5.40;;;;;;;4.09;64.48;97465.88;3785663;78;70057;-27
2021/04/28 01:07:13;;;;;;;8.33;5.15;;;;;;;3.98;66.75;97465.06;3771650;77;26375;-27
2021/04/28 01:12:21;;;;;;;12.28;5.37;;;;;;;3.96;65.83;97459.53;3777694;77;43988;-27
2021/04/28 01:17:27;;;;;;;11.47;5.57;;;;;;;3.92;66.77;97464.31;3767759;77;75437;-27
2021/04/28 02:32:53;;;;;;;8.80;6.05;;;;;;;3.60;68.08;97422.02;3793102;76;26450;-27
2021/04/28 02:38:21;;;;;;;9.07;5.17;;;;;;;3.64;67.03;97428.74;3773742;77;26751;-27
2021/04/28 02:43:38;;;;;;;9.50;5.43;;;;;;;3.61;67.07;97415.20;3772049;78;70106;-27
2021/04/28 02:48:47;;;;;;;7.12;5.17;;;;;;;3.65;66.28;97409.09;3770527;78;26600;-27
2021/04/28 02:54:15;;;;;;;8.83;5.50;;;;;;;3.68;65.38;97411.48;3772188;77;27357;-27
2021/04/28 02:59:23;;;;;;;10.18;5.97;;;;;;;3.69;66.01;97411.83;3773606;78;43274;-27
2021/04/28 03:04:29;;;;;;;11.57;5.93;;;;;;;3.69;65.42;97406.02;3776554;77;44787;-27
2021/04/28 03:09:52;;;;;;;9.80;6.10;;;;;;;3.68;66.23;97399.48;3772881;78;26377;-27
2021/04/28 03:14:59;;;;;;;10.65;6.03;;;;;;;3.68;66.14;97396.83;3776190;77;43404;-27
2021/04/28 03:20:09;;;;;;;10.37;5.90;;;;;;;3.68;66.15;97400.34;3775509;77;43345;-27
2021/04/28 03:25:18;;;;;;;8.15;5.95;;;;;;;3.64;65.75;97398.11;3773877;77;26379;-26
2021/04/28 03:30:27;;;;;;;8.20;5.73;;;;;;;3.72;65.65;97397.38;3773342;77;26583;-26
2021/04/28 03:35:32;;;;;;;10.17;6.33;;;;;;;3.67;65.00;97397.33;3775099;77;43408;-26
2021/04/28 03:40:56;;;;;;;10.37;5.70;;;;;;;3.68;64.99;97397.69;3769915;78;26845;-26
2021/04/28 03:46:03;;;;;;;11.05;6.20;;;;;;;3.80;64.45;97398.84;3775531;77;43455;-25
2021/04/28 03:51:16;;;;;;;9.80;6.40;;;;;;;3.88;65.13;97400.80;3770964;77;26368;-25
2021/04/28 03:56:41;;;;;;;10.77;6.90;;;;;;;3.92;65.50;97395.03;3770510;78;26537;-25
2021/04/28 04:01:48;;;;;;;11.47;6.80;;;;;;;3.94;66.00;97394.37;3770714;77;43439;-24
2021/04/28 04:06:54;;;;;;;10.47;6.97;;;;;;;3.93;67.37;97395.39;3774920;77;43409;-24
2021/04/28 04:12:02;;;;;;;10.90;6.80;;;;;;;3.85;69.83;97399.23;3765502;78;26484;-25
2021/04/28 04:17:17;;;;;;;12.13;7.13;;;;;;;3.89;69.71;97391.31;3772118;78;26368;-25
2021/04/28 04:22:25;;;;;;;12.40;7.50;;;;;;;3.94;71.28;97397.55;3776169;77;26761;-24
2021/04/28 04:27:41;;;;;;;13.53;7.73;;;;;;;3.97;71.55;97406.08;3769207;78;26276;-26
2021/04/28 04:32:48;;;;;;;11.68;8.20;;;;;;;3.97;72.29;97401.26;3770649;77;75317;-26
2021/04/28 04:38:13;;;;;;;11.70;7.17;;;;;;;4.03;70.96;97400.66;3782862;76;26300;-25
2021/04/28 04:43:34;;;;;;;10.53;7.35;;;;;;;4.05;70.86;97409.87;3781768;78;26761;-25
2021/04/28 04:48:51;;;;;;;11.27;7.53;;;;;;;4.10;72.58;97403.11;3774857;77;26817;-24
2021/04/28 04:53:57;;;;;;;12.90;8.70;;;;;;;4.13;70.92;97406.80;3797900;78;44370;-24
2021/04/28 04:59:04;;;;;;;12.63;8.67;;;;;;;4.18;71.64;97406.87;3795866;77;44089;-24
2021/04/28 05:04:09;;;;;;;14.60;9.17;;;;;;;4.14;74.17;97405.81;3799593;77;44011;-25
2021/04/28 05:09:15;;;;;;;14.67;9.40;;;;;;;4.13;75.16;97403.31;3798539;78;44087;-25
2021/04/28 05:14:21;;;;;;;12.00;8.50;;;;;;;4.13;76.89;97398.80;3802069;77;43696;-25
2021/04/28 05:19:27;;;;;;;13.75;7.95;;;;;;;4.14;79.57;97393.82;3797797;77;42886;-25
2021/04/28 05:24:33;;;;;;;12.40;8.43;;;;;;;4.08;78.06;97393.09;3795335;78;43677;-25
2021/04/28 05:29:41;;;;;;;15.78;8.93;;;;;;;3.89;78.79;97407.31;3795271;78;26391;-25
2021/04/28 05:34:47;;;;;;;14.00;9.65;;;;;;;3.82;78.27;97400.89;3728195;78;44125;-26
2021/04/28 05:39:52;;;;;;;14.15;9.08;;;;;;;3.80;79.65;97404.18;3687517;79;43257;-25
2021/04/28 05:44:58;;;;;;;15.27;9.37;;;;;;;3.74;82.43;97407.40;3683236;79;43299;-25
2021/04/28 05:50:08;;;;;;;14.77;9.23;;;;;;;3.69;82.83;97406.02;3682057;79;44047;-25
2021/04/28 05:55:15;;;;;;;13.85;9.28;;;;;;;3.76;81.96;97406.77;3681883;79;75324;-26
2021/04/28 06:00:23;;;;;;;12.63;8.93;;;;;;;3.84;81.71;97408.22;3684109;79;44708;-26
2021/04/28 06:05:29;;;;;;;11.87;8.70;;;;;;;3.97;82.41;97416.74;3687068;79;44216;-24
2021/04/28 06:10:35;;;;;;;12.80;9.03;;;;;;;4.09;82.63;97412.56;3678563;79;43694;-24
2021/04/28 06:15:41;;;;;;;14.98;9.58;;;;;;;4.26;82.98;97406.48;3683863;79;43682;-24
2021/04/28 06:20:47;;;;;;;15.40;9.65;;;;;;;4.45;82.53;97409.57;3687691;79;43990;-25
2021/04/28 06:25:54;;;;;;;17.85;10.00;;;;;;;4.73;84.00;97411.39;3683458;80;43310;-26
2021/04/28 06:31:00;;;;;;;13.00;9.63;;;;;;;5.00;82.85;97412.36;3682118;80;44022;-24
2021/04/28 06:36:07;;;;;;;20.73;10.13;;;;;;;5.19;79.79;97406.01;3684933;79;44005;-25
2021/04/28 06:41:15;;;;;;;14.18;9.48;;;;;;;5.37;79.30;97404.20;3678053;79;43019;-25
2021/04/28 06:46:21;;;;;;;13.35;9.80;;;;;;;5.67;79.31;97402.59;3684578;79;44569;-25
2021/04/28 06:51:28;;;;;;;15.88;10.58;;;;;;;5.91;75.56;97398.42;3688363;79;43123;-25
2021/04/28 06:56:34;;;;;;;14.53;10.15;;;;;;;6.19;74.55;97396.92;3684516;79;43694;-26
2021/04/28 07:01:40;;;;;;;15.15;10.32;;;;;;;6.48;74.20;97398.77;3680633;80;44016;-25
2021/04/28 07:06:46;;;;;;;14.15;9.88;;;;;;;6.84;73.53;97396.37;3686691;79;43678;-25
2021/04/28 07:11:52;;;;;;;15.98;10.70;;;;;;;7.11;70.68;97397.62;3681420;79;43314;-26
2021/04/28 07:16:58;;;;;;;14.40;10.75;;;;;;;7.32;70.59;97397.13;3682378;80;44026;-26
2021/04/28 07:22:05;;;;;;;16.17;11.08;;;;;;;7.57;69.09;97395.32;3680521;79;43716;-25
2021/04/28 07:27:11;;;;;;;16.30;10.63;;;;;;;7.76;68.45;97389.27;3679541;80;44494;-25
2021/04/28 07:32:18;;;;;;;16.73;10.82;;;;;;;7.96;68.69;97386.55;3682017;79;44382;-25
2021/04/28 07:37:23;;;;;;;16.40;11.18;;;;;;;8.16;69.58;97380.31;3680282;79;43494;-25
2021/04/28 07:42:30;;;;;;;13.77;10.33;;;;;;;8.57;67.11;97379.37;3681619;80;77362;-25
2021/04/28 07:47:36;;;;;;;16.52;10.90;;;;;;;8.73;65.98;97381.14;3683714;79;44097;-25
2021/04/28 07:52:44;;;;;;;14.38;10.70;;;;;;;8.84;66.62;97381.75;3686686;78;43370;-25
2021/04/28 07:57:50;;;;;;;12.88;10.55;;;;;;;9.14;65.28;97368.50;3679567;79;43366;-25
2021/04/28 08:02:57;;;;;;;14.70;10.18;;;;;;;9.35;65.34;97374.05;3684596;79;44084;-25
2021/04/28 08:08:03;;;;;;;13.43;9.88;;;;;;;9.71;63.99;97373.43;3686647;79;43674;-27
2021/04/28 08:13:10;;;;;;;13.93;9.20;;;;;;;10.00;63.95;97366.41;3683513;79;43295;-26
2021/04/28 08:18:19;;;;;;;13.58;8.80;;;;;;;10.28;62.40;97364.98;3683132;79;43456;-25
2021/04/28 08:23:30;;;;;;;14.13;8.80;;;;;;;10.79;57.91;97360.17;3686999;79;43665;-25
2021/04/28 08:28:40;;;;;;;10.20;7.62;;;;;;;11.23;57.33;97365.94;3682918;80;44148;-25
2021/04/28 08:33:47;;;;;;;11.88;6.47;;;;;;;11.31;55.27;97360.94;3679832;80;43082;-25
2021/04/28 08:38:54;;;;;;;9.35;6.28;;;;;;;11.80;49.67;97352.55;3680104;80;43741;-27
2021/04/28 08:44:03;;;;;;;9.98;6.65;;;;;;;12.14;49.53;97352.83;3682872;79;44031;-25
2021/04/28 08:49:10;;;;;;;7.72;5.67;;;;;;;12.31;48.75;97351.46;3687624;79;43370;-27
2021/04/28 08:54:17;;;;;;;9.18;5.87;;;;;;;12.65;46.96;97343.54;3682861;79;43026;-25
2021/04/28 08:59:24;;;;;;;7.42;5.40;;;;;;;12.85;47.36;97343.63;3680483;79;44401;-25
2021/04/28 09:04:32;;;;;;;10.03;5.28;;;;;;;13.10;45.19;97335.79;3685294;79;43437;-23
2021/04/28 09:09:41;;;;;;;8.33;5.12;;;;;;;13.25;44.52;97350.48;3681523;80;43278;-23
2021/04/28 09:14:48;;;;;;;7.78;5.35;;;;;;;13.33;43.48;97348.64;3684302;79;44065;-23
2021/04/28 09:20:15;;;;;;;6.08;5.00;;;;;;;13.63;43.66;97352.33;3682777;79;43190;-23
2021/04/28 09:25:44;;;;;;;8.13;4.70;;;;;;;13.81;43.30;97344.44;3683658;79;26979;-23
2021/04/28 09:31:20;;;;;;;10.10;5.08;;;;;;;13.99;42.06;97341.60;3684357;79;26383;-24
2021/04/28 09:36:30;;;;;;;6.70;5.47;;;;;;;13.98;43.43;97339.44;3686074;79;43365;-24
2021/04/28 09:41:39;;;;;;;7.58;4.97;;;;;;;14.25;41.82;97338.55;3683307;79;43711;-24
2021/04/28 09:47:00;;;;;;;7.17;5.08;;;;;;;14.33;42.04;97339.16;3683464;80;43019;-24
2021/04/28 09:52:07;;;;;;;8.28;5.17;;;;;;;14.40;39.85;97331.02;3685843;79;43717;-24
2021/04/28 09:57:15;;;;;;;5.65;5.03;;;;;;;14.45;38.62;97333.91;3684026;79;44048;-24
2021/04/28 10:02:30;;;;;;;9.35;5.35;;;;;;;14.42;38.23;97327.55;3682595;79;43369;-23
2021/04/28 10:07:37;;;;;;;7.50;5.30;;;;;;;14.78;39.32;97329.45;3687227;79;44154;-23
2021/04/28 10:12:43;;;;;;;7.00;4.83;;;;;;;14.90;38.92;97315.52;3683842;80;44458;-23
2021/04/28 10:17:50;;;;;;;8.75;5.50;;;;;;;14.83;37.45;97324.73;3683362;79;44006;-25
2021/04/28 10:22:57;;;;;;;7.22;4.58;;;;;;;14.85;36.11;97319.92;3685518;79;43733;-25
2021/04/28 10:28:06;;;;;;;6.40;5.35;;;;;;;14.95;38.57;97321.64;3684134;79;44139;-23
2021/04/28 10:33:17;;;;;;;7.05;4.90;;;;;;;14.93;37.54;97315.60;3684164;80;43380;-23
2021/04/28 10:38:24;;;;;;;6.22;4.97;;;;;;;15.06;36.99;97312.82;3686827;79;44011;-23
2021/04/28 10:43:37;;;;;;;7.58;5.28;;;;;;;15.07;36.83;97306.34;3685741;79;43734;-23
2021/04/28 10:48:43;;;;;;;6.10;5.05;;;;;;;15.11;38.07;97306.73;3684754;80;44404;-23
2021/04/28 10:53:50;;;;;;;6.78;4.92;;;;;;;15.21;38.05;97301.66;3685457;79;43321;-24
2021/04/28 10:58:55;;;;;;;8.50;6.00;;;;;;;15.68;38.04;97296.41;3683438;79;44083;-25
2021/04/28 11:04:02;;;;;;;11.45;6.78;;;;;;;15.62;37.36;97283.73;3685522;79;43648;-24
2021/04/28 11:09:13;;;;;;;7.67;5.65;;;;;;;15.65;37.60;97288.70;3684274;80;43890;-24
2021/04/28 11:14:34;;;;;;;7.42;5.53;;;;;;;15.92;37.91;97289.86;3685416;79;44041;-23
2021/04/28 11:19:43;;;;;;;7.53;6.12;;;;;;;16.16;37.45;97277.30;3685428;79;43321;-24
2021/04/28 11:25:11;;;;;;;8.98;6.03;;;;;;;16.17;36.56;97277.58;3684566;79;43274;-24
2021/04/28 11:30:41;;;;;;;7.22;6.05;;;;;;;16.21;36.03;97273.91;3684626;79;43737;-24
2021/04/28 11:36:08;;;;;;;12.00;6.37;;;;;;;16.28;36.70;97274.65;3687955;79;43506;-24
2021/04/28 11:41:15;;;;;;;8.60;5.50;;;;;;;16.41;35.73;97273.14;3680781;80;44066;-23
2021/04/28 11:46:24;;;;;;;6.75;5.55;;;;;;;16.64;36.50;97262.91;3684925;79;43980;-23
2021/04/28 11:51:31;;;;;;;8.50;5.37;;;;;;;16.82;37.90;97265.85;3688238;79;43511;-23
2021/04/28 11:56:41;;;;;;;8.70;5.90;;;;;;;16.97;34.50;97254.58;3679500;80;44032;-23
2021/04/28 12:01:50;;;;;;;9.70;6.75;;;;;;;17.28;35.72;97258.09;3684113;79;44082;-23
2021/04/28 12:06:56;;;;;;;10.05;6.90;;;;;;;17.41;35.42;97251.89;3688751;79;44431;-23
2021/04/28 12:12:18;;;;;;;10.32;6.92;;;;;;;17.46;36.41;97251.22;3684865;80;43333;-24
2021/04/28 12:17:25;;;;;;;8.88;7.08;;;;;;;17.47;34.90;97248.76;3681769;80;43237;-24
2021/04/28 12:22:33;;;;;;;11.53;7.20;;;;;;;17.51;35.42;97249.14;3687310;79;44386;-24
2021/04/28 12:27:44;;;;;;;10.15;6.75;;;;;;;17.79;35.50;97240.28;3684404;78;44139;-23
2021/04/28 12:32:52;;;;;;;9.05;6.53;;;;;;;17.75;34.46;97233.63;3682604;79;43580;-26
2021/04/28 12:38:04;;;;;;;8.88;6.65;;;;;;;18.13;34.33;97233.70;3687463;79;44047;-26
2021/04/28 12:43:12;;;;;;;7.05;5.92;;;;;;;17.59;34.42;97223.44;3684898;80;44749;-25
2021/04/28 12:48:21;;;;;;;11.00;6.62;;;;;;;18.18;34.69;97226.98;3687502;78;43430;-28
2021/04/28 12:53:27;;;;;;;11.15;7.67;;;;;;;18.40;33.09;97214.61;3682943;79;44010;-27
2021/04/28 12:58:35;;;;;;;9.60;6.90;;;;;;;18.35;33.34;97218.06;3683697;79;44116;-25
2021/04/28 13:03:43;;;;;;;10.05;7.58;;;;;;;18.28;33.08;97204.57;3683258;79;43722;-25
2021/04/28 13:08:50;;;;;;;9.70;6.28;;;;;;;18.44;31.35;97205.70;3686416;79;43646;-25
2021/04/28 13:14:02;;;;;;;9.15;6.67;;;;;;;19.03;32.20;97198.38;3684481;79;44000;-25
2021/04/28 13:19:10;;;;;;;10.40;7.42;;;;;;;19.00;32.46;97187.39;3686482;79;44067;-26
2021/04/28 13:24:22;;;;;;;10.28;7.08;;;;;;;18.61;31.98;97181.77;3684379;79;43913;-25
2021/04/28 13:29:28;;;;;;;9.53;7.87;;;;;;;19.34;32.06;97175.14;3683893;79;44046;-26
2021/04/28 13:34:35;;;;;;;12.13;7.67;;;;;;;20.01;32.17;97162.47;3687817;79;43446;-26
2021/04/28 13:39:41;;;;;;;11.15;8.08;;;;;;;19.84;31.80;97158.91;3681550;78;43665;-26
2021/04/28 13:44:46;;;;;;;10.23;8.30;;;;;;;19.93;32.07;97154.72;3694566;80;44464;-25
2021/04/28 13:49:52;;;;;;;11.73;7.08;;;;;;;20.06;31.79;97152.66;3699310;78;44377;-26
2021/04/28 13:54:59;;;;;;;11.00;7.25;;;;;;;20.29;30.81;97146.93;3698150;78;43298;-25
2021/04/28 14:00:08;;;;;;;9.65;6.75;;;;;;;20.26;30.68;97148.83;3693349;79;43431;-26
2021/04/28 14:05:19;;;;;;;8.23;5.60;;;;;;;20.97;30.68;97144.38;3694928;78;43673;-25
2021/04/28 14:10:25;;;;;;;7.33;5.30;;;;;;;21.39;29.39;97132.67;3693812;79;44011;-26
2021/04/28 14:15:31;;;;;;;6.83;5.92;;;;;;;21.64;30.09;97129.00;3699093;78;44050;-26
2021/04/28 14:20:37;;;;;;;7.12;6.03;;;;;;;20.79;29.47;97134.63;3698531;79;43103;-25
2021/04/28 14:25:43;;;;;;;7.60;6.17;;;;;;;20.33;29.68;97124.83;3694646;79;44887;-25
2021/04/28 14:30:50;;;;;;;13.45;7.78;;;;;;;20.28;30.38;97122.06;3694022;79;44123;-25
2021/04/28 14:35:56;;;;;;;10.68;8.38;;;;;;;20.43;31.35;97117.81;3695026;78;44007;-25
2021/04/28 14:41:02;;;;;;;12.07;7.67;;;;;;;20.68;31.44;97106.84;3712744;78;44030;-26
2021/04/28 14:46:07;;;;;;;11.70;7.87;;;;;;;21.13;31.24;97106.98;3731635;78;43342;-27
2021/04/28 14:51:15;;;;;;;8.60;7.05;;;;;;;21.20;31.09;97102.13;3731092;77;43722;-26
2021/04/28 14:56:22;;;;;;;12.05;7.67;;;;;;;21.91;29.03;97086.94;3734090;78;44150;-26
2021/04/28 15:01:28;;;;;;;11.83;8.48;;;;;;;21.69;29.83;97086.57;3746190;78;44175;-25
2021/04/28 15:06:36;;;;;;;14.33;8.98;;;;;;;21.67;29.95;97079.96;3664751;79;43424;-27
2021/04/28 15:11:42;;;;;;;10.53;8.28;;;;;;;21.49;29.57;97074.35;3728291;78;43338;-26
2021/04/28 15:16:48;;;;;;;14.05;8.35;;;;;;;21.57;29.22;97059.89;3661342;79;44014;-26
2021/04/28 15:21:54;;;;;;;13.58;8.23;;;;;;;21.63;29.33;97065.16;3738194;78;43715;-26
2021/04/28 15:27:00;;;;;;;14.03;8.78;;;;;;;21.69;29.63;97052.31;3728438;77;43420;-26
2021/04/28 15:32:07;;;;;;;11.60;8.73;;;;;;;21.43;29.63;97054.88;3722721;77;44027;-26
2021/04/28 15:37:13;;;;;;;11.00;8.35;;;;;;;21.97;30.28;97046.09;3658841;79;43025;-26
2021/04/28 15:42:19;;;;;;;12.55;8.63;;;;;;;21.60;30.58;97038.81;3638834;80;44593;-26
2021/04/28 15:47:27;;;;;;;13.40;10.18;;;;;;;21.17;30.70;97041.03;3683140;78;44089;-25
2021/04/28 15:52:34;;;;;;;16.55;9.93;;;;;;;20.87;30.50;97035.63;3689403;78;44078;-25
2021/04/28 15:57:40;;;;;;;13.62;9.15;;;;;;;20.72;30.92;97032.73;3685362;78;44040;-25
2021/04/28 16:02:46;;;;;;;11.48;9.03;;;;;;;20.67;31.51;97021.21;3694634;78;43232;-25
2021/04/28 16:07:52;;;;;;;10.95;9.10;;;;;;;20.46;31.06;97018.28;3686042;78;43719;-25
2021/04/28 16:12:58;;;;;;;14.50;9.68;;;;;;;19.73;31.48;97010.94;3699780;78;44076;-26
2021/04/28 16:18:05;;;;;;;14.18;9.53;;;;;;;19.43;32.62;97008.13;3689222;78;44456;-26
2021/04/28 16:23:10;;;;;;;15.35;9.23;;;;;;;19.99;32.77;97003.34;3684898;78;44057;-27
2021/04/28 16:28:16;;;;;;;11.75;9.35;;;;;;;19.88;33.36;97005.69;3707224;78;44013;-27
2021/04/28 16:33:23;;;;;;;12.93;9.40;;;;;;;19.62;32.57;96999.89;3690994;78;44071;-27
2021/04/28 16:38:29;;;;;;;12.88;8.43;;;;;;;19.82;32.89;97001.20;3688943;78;43695;-25
2021/04/28 16:43:35;;;;;;;10.63;7.90;;;;;;;20.05;32.08;97004.78;3694673;78;44027;-26
2021/04/28 16:48:42;;;;;;;11.93;8.75;;;;;;;19.98;32.66;97005.80;3704816;78;43333;-26
2021/04/28 16:53:48;;;;;;;11.00;8.45;;;;;;;19.68;32.79;97001.62;3687226;78;43015;-26
2021/04/28 16:58:54;;;;;;;12.70;8.43;;;;;;;20.32;33.13;96998.75;3716333;78;43678;-25
2021/04/28 17:03:59;;;;;;;12.68;8.53;;;;;;;20.50;32.81;97001.35;3678173;78;43350;-25
2021/04/28 17:09:07;;;;;;;12.82;7.87;;;;;;;20.12;33.17;96998.55;3693783;78;43455;-20
2021/04/28 17:14:13;;;;;;;13.20;8.80;;;;;;;19.78;33.75;96995.98;3693417;78;44035;-22
2021/04/28 17:19:19;;;;;;;13.05;8.45;;;;;;;18.98;34.39;96994.44;3692485;78;44034;-23
2021/04/28 17:24:25;;;;;;;11.05;8.78;;;;;;;18.38;35.09;96992.66;3720373;78;43687;-24
2021/04/28 17:29:31;;;;;;;11.22;9.15;;;;;;;18.32;35.24;96990.90;3663698;78;44452;-22
2021/04/28 17:34:37;;;;;;;12.53;9.58;;;;;;;18.12;35.55;96998.17;3657627;78;44471;-22
2021/04/28 17:39:44;;;;;;;14.53;10.35;;;;;;;17.40;37.11;96992.16;3677665;78;44573;-22
2021/04/28 17:44:50;;;;;;;14.05;9.03;;;;;;;16.87;37.46;96998.90;3712611;78;42886;-21
2021/04/28 17:49:56;;;;;;;15.40;9.05;;;;;;;16.66;37.97;96998.10;3728227;78;44180;-22
2021/04/28 17:55:03;;;;;;;12.82;8.90;;;;;;;16.43;38.01;96998.37;3736837;78;44510;-22
2021/04/28 18:00:12;;;;;;;12.70;9.55;;;;;;;16.20;38.56;97001.34;3716821;78;43686;-22
2021/04/28 18:05:19;;;;;;;11.73;8.85;;;;;;;15.81;39.15;97004.39;3726369;78;44036;-22
2021/04/28 18:10:27;;;;;;;14.38;9.23;;;;;;;15.40;39.78;97001.36;3715956;78;44068;-22
2021/04/28 18:15:34;;;;;;;12.03;9.03;;;;;;;15.08;40.60;96997.45;3670402;80;44466;-22
2021/04/28 18:20:41;;;;;;;12.68;8.48;;;;;;;14.81;40.94;96997.41;3719131;78;44038;-21
2021/04/28 18:25:47;;;;;;;12.28;8.58;;;;;;;14.67;40.82;97001.61;3743389;78;44063;-20
2021/04/28 18:30:57;;;;;;;12.70;8.78;;;;;;;14.45;41.16;97004.69;3727726;78;43995;-22
2021/04/28 18:36:03;;;;;;;16.15;10.32;;;;;;;14.24;41.67;97001.00;3736493;78;43017;-23
2021/04/28 18:41:09;;;;;;;12.45;9.18;;;;;;;14.01;42.51;96998.35;3735561;78;43707;-23
2021/04/28 18:46:15;;;;;;;12.50;8.60;;;;;;;13.86;42.94;96992.70;3711258;77;43443;-23
2021/04/28 18:51:22;;;;;;;13.32;9.13;;;;;;;13.76;43.08;96995.60;3676061;79;44041;-22
2021/04/28 18:56:28;;;;;;;15.00;9.00;;;;;;;13.67;43.42;96993.66;3709442;78;44072;-23
2021/04/28 19:01:36;;;;;;;13.68;9.03;;;;;;;13.54;43.63;96980.51;3667208;79;43404;-23
2021/04/28 19:06:42;;;;;;;12.82;8.65;;;;;;;13.61;43.53;96987.75;3677336;79;44448;-23
2021/04/28 19:11:48;;;;;;;12.30;9.18;;;;;;;13.49;43.84;96993.84;3675275;79;43746;-22
2021/04/28 19:16:53;;;;;;;12.75;9.90;;;;;;;13.42;44.55;96993.05;3655731;79;44003;-22
2021/04/28 19:22:01;;;;;;;12.40;9.48;;;;;;;13.31;44.88;96990.45;3661652;79;44042;-22
2021/04/28 19:27:10;;;;;;;13.48;9.85;;;;;;;13.31;44.98;96987.74;3641631;79;43737;-22
2021/04/28 19:32:16;;;;;;;13.45;10.08;;;;;;;13.31;45.75;96989.09;3645994;79;43473;-22
2021/04/28 19:37:23;;;;;;;17.00;11.38;;;;;;;13.35;45.86;96986.79;3654984;78;43539;-23
2021/04/28 19:42:29;;;;;;;15.80;11.35;;;;;;;13.30;46.28;96986.62;3646989;79;43451;-22
2021/04/28 19:47:35;;;;;;;16.00;11.22;;;;;;;13.21;47.64;96986.87;3702388;78;43660;-22
2021/04/28 19:52:41;;;;;;;16.57;11.12;;;;;;;13.18;48.07;96981.88;3695172;78;43205;-23
2021/04/28 19:57:46;;;;;;;18.60;11.25;;;;;;;13.18;48.23;96969.71;3690967;78;44019;-21
2021/04/28 20:02:52;;;;;;;16.32;11.15;;;;;;;13.11;48.71;96977.03;3694195;77;44011;-21
2021/04/28 20:07:59;;;;;;;16.87;11.43;;;;;;;13.08;48.38;96968.80;3695049;78;44088;-22
2021/04/28 20:13:05;;;;;;;17.52;11.53;;;;;;;13.01;49.25;96961.75;3692513;78;44006;-22
2021/04/28 20:18:10;;;;;;;16.80;11.57;;;;;;;12.89;49.34;96958.89;3612362;80;43345;-21
2021/04/28 20:23:17;;;;;;;17.05;11.43;;;;;;;12.81;49.78;96949.13;3689518;78;44092;-21
2021/04/28 20:28:23;;;;;;;17.15;11.78;;;;;;;12.76;50.22;96944.37;3700766;78;44157;-24
2021/04/28 20:33:29;;;;;;;17.73;11.48;;;;;;;12.71;49.89;96942.81;3693971;79;43354;-22
2021/04/28 20:38:35;;;;;;;18.12;11.57;;;;;;;12.61;50.56;96937.02;3695044;78;44762;-21
2021/04/28 20:43:41;;;;;;;17.48;11.28;;;;;;;12.51;50.69;96930.72;3696704;78;44058;-21
2021/04/28 20:48:47;;;;;;;17.02;11.20;;;;;;;12.42;50.76;96934.66;3599345;79;43982;-22
2021/04/28 20:53:57;;;;;;;15.18;10.90;;;;;;;12.27;51.43;96925.43;3613960;80;43436;-22
2021/04/28 20:59:01;;;;;;;15.20;10.63;;;;;;;12.18;51.48;96916.20;3605209;80;43418;-22
2021/04/28 21:04:07;;;;;;;16.75;10.70;;;;;;;12.06;52.00;96910.27;3609450;80;43726;-22
2021/04/28 21:09:15;;;;;;;15.60;10.38;;;;;;;12.02;52.31;96917.46;3602878;80;43701;-22
2021/04/28 21:14:21;;;;;;;14.03;10.03;;;;;;;11.92;52.55;96909.42;3619287;80;42917;-22
2021/04/28 21:19:28;;;;;;;15.60;9.58;;;;;;;11.77;53.51;96901.53;3617466;80;43462;-22
2021/04/28 21:24:34;;;;;;;15.28;9.90;;;;;;;11.73;53.62;96890.33;3597226;80;44204;-22
2021/04/28 21:29:41;;;;;;;15.95;10.58;;;;;;;11.71;54.11;96888.35;3634179;80;44058;-22
2021/04/28 21:34:48;;;;;;;16.30;10.40;;;;;;;11.64;55.47;96885.65;3599438;80;43794;-22
2021/04/28 21:39:55;;;;;;;15.48;10.10;;;;;;;11.59;55.40;96881.38;3616464;80;44079;-21
2021/04/28 21:45:04;;;;;;;15.50;10.68;;;;;;;11.55;56.81;96880.15;3624691;78;44557;-22
2021/04/28 21:50:12;;;;;;;15.65;10.93;;;;;;;11.53;56.82;96874.13;3692694;78;44069;-21
2021/04/28 21:55:18;;;;;;;17.05;10.68;;;;;;;11.53;57.45;96868.73;3692517;78;44030;-22
2021/04/28 22:00:27;;;;;;;15.13;10.40;;;;;;;11.51;57.10;96865.41;3696315;78;44449;-22
2021/04/28 22:05:34;;;;;;;16.67;9.85;;;;;;;11.46;56.74;96861.98;3690292;79;44572;-22
2021/04/28 22:10:41;;;;;;;15.95;10.25;;;;;;;11.37;58.49;96859.17;3693168;78;43443;-22
2021/04/28 22:15:47;;;;;;;14.78;10.05;;;;;;;11.33;59.52;96852.52;3695606;78;43325;-22
2021/04/28 22:20:54;;;;;;;16.65;10.38;;;;;;;11.36;57.73;96850.77;3698227;78;44271;-22
2021/04/28 22:26:01;;;;;;;14.30;9.18;;;;;;;11.37;58.06;96845.16;3692551;78;43706;-22
2021/04/28 22:31:07;;;;;;;15.48;10.23;;;;;;;11.40;58.75;96845.29;3693605;78;44086;-23
2021/04/28 22:36:13;;;;;;;14.73;9.70;;;;;;;11.48;56.68;96849.12;3692671;78;44085;-23
2021/04/28 22:41:20;;;;;;;13.78;9.15;;;;;;;11.48;57.02;96846.43;3696898;78;44108;-22
2021/04/28 22:46:26;;;;;;;14.23;9.55;;;;;;;11.57;56.28;96847.06;3694103;79;44019;-22
2021/04/28 22:51:32;;;;;;;13.48;9.20;;;;;;;11.64;56.31;96854.63;3693964;78;43661;-22
2021/04/28 22:56:38;;;;;;;12.63;9.08;;;;;;;11.67;56.39;96862.31;3704065;78;44070;-22
2021/04/28 23:01:44;;;;;;;13.18;9.53;;;;;;;11.71;55.21;96858.68;3700965;78;44007;-22
2021/04/28 23:06:49;;;;;;;13.55;8.98;;;;;;;11.72;55.13;96861.16;3705509;78;43697;-22
2021/04/28 23:11:56;;;;;;;15.00;9.08;;;;;;;11.68;55.84;96864.48;3709218;78;43437;-22
2021/04/28 23:17:03;;;;;;;13.13;9.48;;;;;;;11.70;55.64;96852.97;3689620;78;44044;-23
2021/04/28 23:22:09;;;;;;;13.35;8.98;;;;;;;11.71;55.53;96856.80;3702557;78;43247;-22
2021/04/28 23:27:15;;;;;;;13.13;8.90;;;;;;;11.69;55.67;96854.86;3698761;77;43365;-22
2021/04/28 23:32:21;;;;;;;12.70;9.30;;;;;;;11.71;55.49;96855.45;3696234;79;43706;-23
2021/04/28 23:37:27;;;;;;;13.55;9.00;;;;;;;11.73;55.65;96855.27;3595666;80;44197;-22
2021/04/28 23:42:33;;;;;;;13.05;9.85;;;;;;;11.74;55.63;96852.87;3690675;78;44770;-22
2021/04/28 23:47:39;;;;;;;12.10;8.83;;;;;;;11.69;56.01;96846.76;3688751;78;43786;-22
2021/04/28 23:52:44;;;;;;;14.15;8.03;;;;;;;11.66;56.62;96839.08;3699359;79;43439;-22
2021/04/28 23:57:50;;;;;;;13.60;9.05;;;;;;;11.67;56.63;96827.25;3693025;78;43495;-22
